Time;durP1;ratioP1;P1;durP2;ratioP2;P2;SDS_P1;SDS_P2;PMS_P1;PMS_P2;Temp;Humidity;BMP_temperature;BMP_pressure;BME280_temperature;BME280_humidity;BME280_pressure;Samples;Min_cycle;Max_cycle;Signal;HPM_P1;HPM_P2
2022/11/15 00:01:38;;;;;;;30.40;20.75;;;;;;;8.63;78.89;100738.22;5035135;28;20025;-75
2022/11/15 00:04:04;;;;;;;31.92;20.35;;;;;;;8.62;78.96;100737.41;5034619;28;20056;-75
2022/11/15 00:06:29;;;;;;;28.77;19.77;;;;;;;8.64;78.80;100734.38;5035384;28;20025;-75
2022/11/15 00:08:55;;;;;;;27.30;20.40;;;;;;;8.68;78.91;100732.81;5032698;28;20033;-75
2022/11/15 00:11:20;;;;;;;24.35;18.95;;;;;;;8.67;79.65;100747.72;5033699;28;20392;-75
2022/11/15 00:13:56;;;;;;;33.63;20.15;;;;;;;8.72;78.94;100734.84;5032852;28;20033;-75
2022/11/15 00:16:21;;;;;;;28.38;20.38;;;;;;;8.72;79.58;100736.75;5032733;28;20064;-74
2022/11/15 00:18:46;;;;;;;32.47;19.60;;;;;;;8.73;79.25;100732.94;5050638;28;20029;-74
2022/11/15 00:21:13;;;;;;;27.17;18.67;;;;;;;8.77;79.50;100729.44;5051741;28;20024;-75
2022/11/15 00:23:39;;;;;;;30.60;19.33;;;;;;;8.80;79.48;100733.63;5042199;28;20032;-75
2022/11/15 00:26:10;;;;;;;29.63;19.80;;;;;;;8.82;79.62;100732.28;5052120;28;20032;-75
2022/11/15 00:28:35;;;;;;;27.85;17.80;;;;;;;8.86;79.43;100727.13;5038531;28;20033;-75
2022/11/15 00:31:03;;;;;;;29.23;20.35;;;;;;;8.84;80.19;100724.59;5052391;28;20120;-75
2022/11/15 00:33:29;;;;;;;28.27;18.90;;;;;;;8.89;80.03;100734.09;5052402;28;20040;-75
2022/11/15 00:36:06;;;;;;;25.27;18.42;;;;;;;8.90;80.49;100727.47;5051295;28;20033;-75
2022/11/15 00:38:37;;;;;;;26.65;18.05;;;;;;;8.94;79.71;100725.88;5035416;28;20124;-75
2022/11/15 00:41:05;;;;;;;28.33;19.15;;;;;;;8.95;80.45;100725.63;5036626;28;20388;-75
2022/11/15 00:43:31;;;;;;;27.40;18.85;;;;;;;9.00;79.88;100728.53;5039746;28;20061;-75
2022/11/15 00:45:59;;;;;;;27.42;19.65;;;;;;;8.99;80.51;100724.06;5040073;28;20102;-74
2022/11/15 00:48:24;;;;;;;30.10;19.45;;;;;;;8.99;80.73;100714.91;5051123;28;20029;-75
2022/11/15 00:50:50;;;;;;;31.95;19.15;;;;;;;9.03;80.24;100716.94;5043995;28;20031;-75
2022/11/15 00:53:16;;;;;;;29.38;19.30;;;;;;;9.03;80.52;100708.63;5046136;28;20476;-74
2022/11/15 00:55:41;;;;;;;25.05;18.75;;;;;;;9.06;80.96;100719.22;5047736;28;20507;-74
2022/11/15 00:58:09;;;;;;;24.83;18.42;;;;;;;9.08;80.90;100714.28;5043200;28;20029;-74
2022/11/15 01:00:35;;;;;;;24.00;18.25;;;;;;;9.08;80.75;100717.06;5033734;28;20021;-74
2022/11/15 01:03:04;;;;;;;25.65;18.42;;;;;;;9.09;81.16;100707.66;5044935;28;20112;-75
2022/11/15 01:05:29;;;;;;;27.08;18.05;;;;;;;9.11;81.53;100707.41;5033783;28;20026;-74
2022/11/15 01:07:55;;;;;;;27.98;19.35;;;;;;;9.10;82.05;100717.63;5032504;28;20029;-75
2022/11/15 01:10:21;;;;;;;24.52;18.73;;;;;;;9.12;81.49;100713.78;5031490;28;20104;-74
2022/11/15 01:12:47;;;;;;;24.05;18.75;;;;;;;9.15;81.97;100707.75;5047006;28;20029;-74
2022/11/15 01:15:13;;;;;;;25.58;18.73;;;;;;;9.16;81.81;100710.28;5043236;28;20102;-74
2022/11/15 01:17:38;;;;;;;25.30;18.75;;;;;;;9.18;82.46;100707.25;5050791;28;20112;-74
2022/11/15 01:20:10;;;;;;;23.45;18.10;;;;;;;9.20;82.83;100705.09;5038086;28;20039;-74
2022/11/15 01:22:35;;;;;;;25.98;19.70;;;;;;;9.22;82.04;100705.66;5048572;28;20083;-73
2022/11/15 01:25:00;;;;;;;22.67;18.20;;;;;;;9.23;82.71;100699.03;5047863;28;20033;-74
2022/11/15 01:27:26;;;;;;;25.00;19.27;;;;;;;9.25;82.16;100697.72;5048769;28;20025;-73
2022/11/15 01:29:51;;;;;;;24.98;18.50;;;;;;;9.27;82.83;100697.44;5044105;28;20136;-73
2022/11/15 01:32:16;;;;;;;24.55;18.15;;;;;;;9.28;82.64;100688.91;5045827;28;20025;-74
2022/11/15 01:34:42;;;;;;;23.73;17.50;;;;;;;9.29;82.38;100687.81;5035592;28;20045;-74
2022/11/15 01:37:07;;;;;;;22.90;17.83;;;;;;;9.31;82.58;100685.66;5030656;28;20488;-74
2022/11/15 01:39:36;;;;;;;22.60;17.83;;;;;;;9.35;82.72;100691.50;5038213;28;20381;-74
2022/11/15 01:42:02;;;;;;;21.55;16.83;;;;;;;9.37;82.56;100688.50;5048050;28;20060;-74
2022/11/15 01:44:43;;;;;;;24.17;18.90;;;;;;;9.37;83.51;100694.88;5040772;28;20040;-74
2022/11/15 01:47:15;;;;;;;22.52;18.73;;;;;;;9.40;83.15;100699.09;5046253;28;20029;-74
2022/11/15 01:49:49;;;;;;;25.88;18.92;;;;;;;9.41;83.73;100687.75;5050076;28;20025;-74
2022/11/15 01:52:18;;;;;;;26.75;19.20;;;;;;;9.42;83.82;100680.28;5049208;28;20025;-74
2022/11/15 01:54:45;;;;;;;27.02;19.50;;;;;;;9.44;84.33;100692.81;5049105;28;20091;-74
2022/11/15 01:57:12;;;;;;;25.02;19.13;;;;;;;9.45;84.84;100688.09;5038869;28;20373;-74
2022/11/15 01:59:42;;;;;;;27.35;18.38;;;;;;;9.46;84.77;100689.78;5029006;28;20033;-74
2022/11/15 02:02:08;;;;;;;23.88;18.77;;;;;;;9.48;84.52;100685.66;5030588;28;20030;-75
2022/11/15 02:04:39;;;;;;;23.00;18.95;;;;;;;9.51;84.86;100685.19;5038820;28;20529;-74
2022/11/15 02:07:06;;;;;;;25.08;18.98;;;;;;;9.53;84.54;100679.38;5047395;28;20021;-74
2022/11/15 02:09:31;;;;;;;30.88;19.70;;;;;;;9.55;84.68;100675.28;5048852;28;20049;-74
2022/11/15 02:11:57;;;;;;;24.85;19.20;;;;;;;9.57;85.42;100673.06;5046015;28;20075;-75
2022/11/15 02:14:24;;;;;;;26.25;20.00;;;;;;;9.59;85.41;100665.38;5044614;28;20044;-75
2022/11/15 02:16:50;;;;;;;24.50;20.20;;;;;;;9.61;85.81;100669.81;5048587;28;20026;-74
2022/11/15 02:19:33;;;;;;;26.80;20.63;;;;;;;9.63;85.63;100670.38;5052183;28;20460;-74
2022/11/15 02:22:26;;;;;;;29.35;21.20;;;;;;;9.65;86.10;100666.28;5045446;28;20106;-74
2022/11/15 02:25:10;;;;;;;;;;;;;;;9.69;84.12;100661.91;5051009;28;20052;-74
2022/11/15 02:27:56;;;;;;;29.02;20.17;;;;;;;9.68;86.18;100660.25;5054335;28;19966;-74
2022/11/15 02:30:32;;;;;;;25.00;20.50;;;;;;;9.70;86.71;100659.97;5051326;28;20036;-74
2022/11/15 02:33:08;;;;;;;31.65;21.50;;;;;;;9.72;86.96;100658.63;5043891;28;20029;-74
2022/11/15 02:35:57;;;;;;;28.08;21.77;;;;;;;9.73;87.28;100654.78;5031964;28;20895;-75
2022/11/15 02:38:52;;;;;;;33.17;21.45;;;;;;;9.76;86.59;100658.97;5040970;28;20045;-75
2022/11/15 02:41:42;;;;;;;30.67;21.15;;;;;;;9.77;87.34;100655.94;5050854;28;20033;-75
2022/11/15 02:44:21;;;;;;;27.73;20.95;;;;;;;9.79;87.12;100652.94;5053257;28;20036;-75
2022/11/15 02:47:12;;;;;;;27.95;21.35;;;;;;;9.80;86.89;100657.38;5037406;28;20025;-75
2022/11/15 02:49:45;;;;;;;27.13;21.23;;;;;;;9.81;87.50;100653.50;5033570;28;20144;-75
2022/11/15 02:52:14;;;;;;;;;;;;;;;9.86;85.28;100645.25;5035806;28;20037;-75
2022/11/15 02:54:39;;;;;;;29.60;22.33;;;;;;;9.86;87.47;100644.44;5035277;28;19916;-75
2022/11/15 02:57:10;;;;;;;27.85;22.17;;;;;;;9.87;87.45;100637.81;5052624;28;20525;-75
2022/11/15 02:59:47;;;;;;;27.00;21.48;;;;;;;9.89;87.57;100642.00;5050649;28;20434;-74
2022/11/15 03:02:37;;;;;;;29.73;21.95;;;;;;;9.91;87.71;100630.66;5033451;28;20033;-74
2022/11/15 03:05:35;;;;;;;31.20;23.02;;;;;;;9.91;87.84;100628.72;5032081;28;20131;-75
2022/11/15 03:08:16;;;;;;;30.33;22.15;;;;;;;9.92;87.86;100633.16;5053292;28;20037;-75
2022/11/15 03:10:56;;;;;;;27.00;21.15;;;;;;;9.94;87.67;100627.34;5044832;28;20060;-75
2022/11/15 03:13:27;;;;;;;31.83;22.52;;;;;;;9.94;88.10;100628.22;5048587;28;20032;-75
2022/11/15 03:16:04;;;;;;;32.72;23.25;;;;;;;9.96;88.39;100628.78;5050985;28;20032;-75
2022/11/15 03:18:37;;;;;;;31.10;22.05;;;;;;;9.97;88.11;100622.16;5048808;28;20083;-75
2022/11/15 03:21:06;;;;;;;29.83;22.73;;;;;;;9.99;88.16;100636.63;5053342;28;20037;-75
2022/11/15 03:23:34;;;;;;;29.75;22.13;;;;;;;10.00;88.44;100631.91;5052476;28;20035;-72
2022/11/15 03:26:00;;;;;;;26.70;21.13;;;;;;;10.01;88.42;100639.94;5050953;28;20041;-74
2022/11/15 03:28:38;;;;;;;30.60;22.73;;;;;;;10.03;88.20;100639.72;5050561;28;20037;-74
2022/11/15 03:31:46;;;;;;;29.10;22.88;;;;;;;10.04;88.48;100633.91;5052909;28;20033;-74
2022/11/15 03:33:54;;;;;;;33.83;22.60;;;;;;;10.05;88.59;100624.47;5049375;28;20040;-75
2022/11/15 03:36:22;;;;;;;33.13;23.80;;;;;;;10.07;88.62;100638.13;5051294;28;20072;-75
2022/11/15 03:38:47;;;;;;;33.45;23.20;;;;;;;10.07;88.47;100638.13;5036792;28;20133;-75
2022/11/15 03:41:22;;;;;;;30.77;22.77;;;;;;;10.08;88.54;100632.28;5033185;28;20459;-74
2022/11/15 03:43:55;;;;;;;30.48;22.35;;;;;;;10.10;88.68;100637.59;5048998;28;20037;-74
2022/11/15 03:46:27;;;;;;;34.95;23.77;;;;;;;10.12;88.78;100637.34;5048662;28;20476;-74
2022/11/15 03:49:04;;;;;;;33.20;24.40;;;;;;;10.12;88.95;100632.63;5039571;28;20037;-74
2022/11/15 03:51:29;;;;;;;38.75;24.77;;;;;;;10.14;88.80;100632.34;5032026;28;20121;-74
2022/11/15 03:53:55;;;;;;;33.83;23.90;;;;;;;10.14;88.71;100635.13;5036514;28;20331;-74
2022/11/15 03:56:20;;;;;;;30.17;23.80;;;;;;;10.16;88.59;100636.56;5051317;28;20503;-74
2022/11/15 03:58:45;;;;;;;37.55;25.33;;;;;;;10.17;88.97;100632.69;5052060;28;20137;-74
2022/11/15 04:01:10;;;;;;;34.05;24.05;;;;;;;10.19;88.79;100632.47;5041444;28;20049;-74
2022/11/15 04:03:36;;;;;;;41.08;26.35;;;;;;;10.20;88.96;100634.13;5036218;28;20034;-74
2022/11/15 04:06:01;;;;;;;34.25;24.92;;;;;;;10.20;89.25;100632.19;5050040;28;20041;-74
2022/11/15 04:08:29;;;;;;;38.20;25.40;;;;;;;10.20;89.26;100625.81;5031864;28;20029;-74
2022/11/15 04:10:54;;;;;;;37.20;26.20;;;;;;;10.22;89.18;100629.19;5032071;28;20476;-74
2022/11/15 04:13:22;;;;;;;37.30;25.60;;;;;;;10.24;89.15;100626.97;5030591;28;20112;-74
2022/11/15 04:15:47;;;;;;;35.75;26.05;;;;;;;10.25;89.28;100623.13;5051924;28;20035;-75
2022/11/15 04:18:13;;;;;;;37.70;27.17;;;;;;;10.25;89.19;100623.13;5051895;28;20025;-74
2022/11/15 04:26:11;;;;;;;37.30;26.73;;;;;;;10.28;89.33;100622.63;5051471;28;20043;-74
2022/11/15 04:29:33;;;;;;;37.42;25.92;;;;;;;10.27;89.21;100624.56;5045006;28;20033;-75
2022/11/15 04:31:25;;;;;;;36.45;25.38;;;;;;;10.28;89.03;100622.63;5039207;28;20137;-74
2022/11/15 04:33:51;;;;;;;37.78;25.83;;;;;;;10.30;89.30;100628.75;5051569;28;20051;-74
2022/11/15 04:39:00;;;;;;;36.28;24.88;;;;;;;10.31;89.22;100628.50;5040978;28;20048;-75
2022/11/15 04:41:25;;;;;;;34.85;24.63;;;;;;;10.31;89.33;100631.25;5050424;28;20028;-74
2022/11/15 04:43:50;;;;;;;36.80;25.10;;;;;;;10.31;88.99;100631.25;5049571;28;20017;-74
2022/11/15 04:46:16;;;;;;;32.97;23.65;;;;;;;10.32;89.36;100630.16;5030674;28;20579;-74
2022/11/15 04:48:41;;;;;;;33.10;23.40;;;;;;;10.33;89.12;100633.78;5030223;28;20041;-74
2022/11/15 04:51:06;;;;;;;31.88;24.50;;;;;;;10.33;89.56;100636.53;5036361;28;20087;-74
2022/11/15 04:53:32;;;;;;;36.47;24.52;;;;;;;10.32;89.33;100630.16;5043455;28;20033;-74
2022/11/15 04:55:57;;;;;;;34.08;24.50;;;;;;;10.34;89.23;100632.69;5048991;28;20035;-74
2022/11/15 04:58:25;;;;;;;38.97;25.35;;;;;;;10.34;89.29;100629.94;5035774;28;20359;-74
2022/11/15 05:00:50;;;;;;;32.33;23.38;;;;;;;10.35;89.22;100626.03;5043210;28;20033;-74
2022/11/15 05:06:03;;;;;;;33.40;22.75;;;;;;;10.37;89.27;100625.78;5050646;28;20084;-74
2022/11/15 05:08:28;;;;;;;35.97;23.85;;;;;;;10.38;89.58;100627.47;5037897;28;20025;-75
2022/11/15 05:10:53;;;;;;;31.58;23.70;;;;;;;10.38;89.40;100622.75;5048729;28;20414;-74
2022/11/15 05:13:18;;;;;;;34.45;23.85;;;;;;;10.37;89.35;100621.06;5056224;28;20043;-75
2022/11/15 05:15:44;;;;;;;31.95;22.73;;;;;;;10.39;89.31;100629.16;5057582;28;20360;-75
2022/11/15 05:18:09;;;;;;;32.72;23.85;;;;;;;10.39;89.42;100629.97;5056350;28;20033;-75
2022/11/15 05:20:34;;;;;;;34.88;23.90;;;;;;;10.40;90.00;100620.56;5050491;28;20033;-74
2022/11/15 05:23:00;;;;;;;31.48;22.95;;;;;;;10.41;89.09;100625.00;5049234;28;20028;-74
2022/11/15 05:25:25;;;;;;;28.77;22.60;;;;;;;10.42;89.60;100623.09;5049885;28;20029;-74
2022/11/15 05:27:59;;;;;;;30.98;22.27;;;;;;;10.40;89.43;100617.78;5051528;28;20033;-74
2022/11/15 05:30:25;;;;;;;29.00;23.00;;;;;;;10.43;89.57;100616.44;5052654;28;20036;-74
2022/11/15 05:32:50;;;;;;;31.45;23.02;;;;;;;10.43;89.25;100614.50;5036154;28;20037;-74
2022/11/15 05:35:25;;;;;;;29.55;23.38;;;;;;;10.43;89.58;100608.94;5038303;28;20484;-74
2022/11/15 05:37:51;;;;;;;29.77;21.35;;;;;;;10.45;89.62;100614.22;5034993;28;20045;-75
2022/11/15 05:40:16;;;;;;;30.27;21.70;;;;;;;10.45;89.46;100609.53;5038831;28;20024;-74
2022/11/15 05:42:41;;;;;;;28.23;21.73;;;;;;;10.46;89.36;100607.59;5056068;28;20029;-74
2022/11/15 05:45:08;;;;;;;28.80;22.27;;;;;;;10.46;89.10;100607.59;5043630;28;20025;-74
2022/11/15 05:47:36;;;;;;;32.13;22.70;;;;;;;10.46;89.44;100613.16;5039451;28;20108;-74
2022/11/15 05:50:01;;;;;;;28.70;21.83;;;;;;;10.48;89.46;100610.94;5055229;28;20021;-74
2022/11/15 05:52:31;;;;;;;26.83;21.77;;;;;;;10.46;89.29;100605.66;5051832;28;20029;-75
2022/11/15 05:54:57;;;;;;;30.85;22.52;;;;;;;10.46;89.67;100614.00;5052140;28;20068;-74
2022/11/15 05:57:24;;;;;;;32.28;21.92;;;;;;;10.47;89.66;100623.16;5041626;28;20052;-74
2022/11/15 05:59:49;;;;;;;28.00;21.45;;;;;;;10.47;89.70;100623.97;5038137;28;20069;-74
2022/11/15 06:02:14;;;;;;;33.22;22.58;;;;;;;10.47;89.69;100623.97;5040937;28;20017;-73
2022/11/15 06:04:40;;;;;;;29.17;21.63;;;;;;;10.48;89.75;100624.81;5058440;28;20177;-74
2022/11/15 06:07:11;;;;;;;33.20;22.83;;;;;;;10.49;89.86;100627.34;5042772;28;20053;-74
2022/11/15 06:09:36;;;;;;;30.73;23.00;;;;;;;10.49;89.65;100630.13;5058649;28;20025;-74
2022/11/15 06:12:02;;;;;;;35.05;22.30;;;;;;;10.48;89.60;100636.75;5047010;28;20074;-74
2022/11/15 06:14:27;;;;;;;27.58;20.58;;;;;;;10.50;89.39;100631.78;5049985;28;20037;-74
2022/11/15 06:16:52;;;;;;;27.73;21.38;;;;;;;10.51;89.47;100627.91;5057088;28;20029;-74
2022/11/15 06:19:17;;;;;;;30.10;22.75;;;;;;;10.52;89.63;100640.69;5040003;28;20524;-77
2022/11/15 06:21:43;;;;;;;28.83;22.20;;;;;;;10.53;89.50;100635.97;5046651;28;20033;-75
2022/11/15 06:24:11;;;;;;;30.35;23.08;;;;;;;10.53;89.61;100642.38;5051553;28;20414;-75
2022/11/15 06:26:36;;;;;;;28.90;22.35;;;;;;;10.54;89.63;100644.06;5047527;28;20033;-73
2022/11/15 06:29:03;;;;;;;33.30;24.40;;;;;;;10.54;89.38;100632.97;5051167;28;20041;-72
2022/11/15 06:31:29;;;;;;;29.77;22.75;;;;;;;10.54;89.36;100644.06;5037988;28;20022;-72
2022/11/15 06:33:54;;;;;;;34.65;23.08;;;;;;;10.56;89.24;100641.00;5034772;28;20104;-73
2022/11/15 06:36:20;;;;;;;31.00;22.88;;;;;;;10.57;89.25;100649.09;5038240;28;20754;-73
2022/11/15 06:38:46;;;;;;;31.10;23.17;;;;;;;10.56;89.29;100650.19;5033867;28;20077;-72
2022/11/15 06:41:13;;;;;;;32.20;22.65;;;;;;;10.54;89.15;100643.22;5042687;28;20525;-72
2022/11/15 06:43:39;;;;;;;26.15;20.63;;;;;;;10.57;88.69;100642.69;5054070;28;20349;-73
2022/11/15 06:46:05;;;;;;;27.55;20.25;;;;;;;10.55;88.76;100640.19;5035716;28;20025;-72
2022/11/15 06:48:32;;;;;;;27.42;19.33;;;;;;;10.56;88.49;100641.84;5038070;28;20071;-77
2022/11/15 06:50:59;;;;;;;24.85;18.63;;;;;;;10.56;88.27;100657.66;5034165;28;20034;-79
2022/11/15 06:53:25;;;;;;;23.95;18.92;;;;;;;10.57;88.09;100656.56;5037967;28;20467;-79
2022/11/15 06:55:51;;;;;;;25.63;19.10;;;;;;;10.58;87.82;100661.03;5042567;28;20145;-78
2022/11/15 06:58:17;;;;;;;30.27;18.00;;;;;;;10.56;87.83;100652.94;5066205;28;20406;-77
2022/11/15 07:00:42;;;;;;;25.75;17.70;;;;;;;10.56;87.70;100660.44;5052828;28;20029;-77
2022/11/15 07:03:09;;;;;;;25.75;17.63;;;;;;;10.58;87.60;100663.81;5050244;28;20025;-77
2022/11/15 07:05:35;;;;;;;26.35;18.33;;;;;;;10.57;87.64;100659.34;5044426;28;20362;-76
2022/11/15 07:08:00;;;;;;;26.65;17.90;;;;;;;10.56;87.36;100664.06;5038241;28;20384;-76
2022/11/15 07:10:26;;;;;;;28.73;17.60;;;;;;;10.57;87.56;100665.75;5042268;28;20025;-75
2022/11/15 07:12:53;;;;;;;25.42;18.25;;;;;;;10.57;87.45;100671.31;5035444;28;20017;-76
2022/11/15 07:15:22;;;;;;;23.45;17.33;;;;;;;10.58;87.54;100672.13;5043028;28;20512;-76
2022/11/15 07:17:48;;;;;;;25.70;17.90;;;;;;;10.57;87.09;100671.31;5038423;28;20025;-73
2022/11/15 07:20:14;;;;;;;22.08;12.95;;;;;;;10.68;87.49;100682.53;5047699;28;20078;-75
2022/11/15 07:22:40;;;;;;;24.05;17.33;;;;;;;10.66;87.20;100679.19;5035763;28;20477;-74
2022/11/15 07:25:06;;;;;;;25.33;17.75;;;;;;;10.66;86.75;100685.56;5050192;28;20041;-74
2022/11/15 07:27:32;;;;;;;22.77;16.77;;;;;;;10.65;86.68;100683.03;5045381;28;20057;-72
2022/11/15 07:29:57;;;;;;;23.70;17.20;;;;;;;10.65;86.99;100681.13;5035807;28;20065;-71
2022/11/15 07:32:23;;;;;;;29.02;19.48;;;;;;;10.64;86.79;100686.91;5036998;28;20022;-71
2022/11/15 07:34:48;;;;;;;23.58;16.88;;;;;;;10.63;86.79;100683.28;5035512;28;20117;-70
2022/11/15 07:37:16;;;;;;;21.05;15.80;;;;;;;10.63;87.00;100677.75;5032597;28;20046;-70
2022/11/15 07:39:42;;;;;;;24.17;17.60;;;;;;;10.62;86.90;100667.75;5037199;28;20182;-76
2022/11/15 07:44:51;;;;;;;22.35;16.77;;;;;;;10.65;86.55;100661.69;5049732;28;20052;-76
2022/11/15 07:47:16;;;;;;;22.00;16.77;;;;;;;10.65;86.62;100660.81;5036972;28;20053;-65
2022/11/15 07:49:42;;;;;;;26.40;16.50;;;;;;;10.62;86.43;100664.13;5036961;28;20040;-76
2022/11/15 07:52:07;;;;;;;27.58;17.90;;;;;;;10.63;86.38;100663.03;5030197;28;20406;-75
2022/11/15 07:54:33;;;;;;;25.23;17.83;;;;;;;10.63;86.53;100666.66;5031409;28;20081;-76
2022/11/15 07:56:58;;;;;;;24.30;17.02;;;;;;;10.65;86.15;100672.78;5040023;28;20388;-76
2022/11/15 07:59:23;;;;;;;21.25;16.13;;;;;;;10.66;86.09;100670.84;5051165;28;20025;-76
2022/11/15 08:01:49;;;;;;;24.15;16.95;;;;;;;10.64;85.87;100664.69;5050641;28;20053;-77
2022/11/15 08:04:16;;;;;;;22.45;16.35;;;;;;;10.68;85.92;100676.97;5039310;28;20021;-76
2022/11/15 08:06:42;;;;;;;20.75;16.10;;;;;;;10.68;86.20;100676.97;5032110;28;20021;-75
2022/11/15 08:09:07;;;;;;;21.40;15.02;;;;;;;10.69;85.80;100679.50;5051347;28;20342;-75
2022/11/15 08:11:32;;;;;;;23.05;16.42;;;;;;;10.71;85.76;100688.41;5051839;28;20492;-75
2022/11/15 08:13:58;;;;;;;22.15;14.85;;;;;;;10.70;85.63;100683.13;5050152;28;20487;-75
2022/11/15 08:16:24;;;;;;;17.55;14.20;;;;;;;10.71;85.59;100688.41;5050932;28;20391;-74
2022/11/15 08:18:49;;;;;;;20.17;14.93;;;;;;;10.70;85.68;100674.78;5050204;28;20021;-77
2022/11/15 08:21:19;;;;;;;19.58;13.70;;;;;;;10.68;85.42;100674.19;5035584;28;20033;-75
2022/11/15 08:23:44;;;;;;;18.23;13.45;;;;;;;10.68;85.25;100679.75;5031080;28;20026;-75
2022/11/15 08:26:09;;;;;;;16.02;13.02;;;;;;;10.67;85.39;100670.56;5030602;28;20040;-76
2022/11/15 08:28:35;;;;;;;16.13;12.57;;;;;;;10.69;85.27;100678.63;5035239;28;20175;-75
2022/11/15 08:31:01;;;;;;;18.83;12.75;;;;;;;10.69;85.01;100673.94;5049313;28;20056;-75
2022/11/15 08:33:27;;;;;;;18.58;12.23;;;;;;;10.67;85.00;100672.53;5051177;28;20025;-75
2022/11/15 08:35:56;;;;;;;28.80;18.60;;;;;;;10.66;84.78;100668.91;5049334;28;20032;-74
2022/11/15 08:38:21;;;;;;;37.78;24.80;;;;;;;10.65;84.93;100663.59;5050635;28;20400;-77
2022/11/15 08:40:46;;;;;;;27.58;17.85;;;;;;;10.67;84.59;100664.19;5050492;28;20021;-75
2022/11/15 08:43:12;;;;;;;18.52;13.02;;;;;;;10.67;84.57;100667.81;5050560;28;20033;-75
2022/11/15 08:45:37;;;;;;;18.65;12.52;;;;;;;10.70;84.47;100663.69;5049546;28;20472;-74
2022/11/15 08:48:03;;;;;;;11.18;9.70;;;;;;;10.71;84.13;100654.25;5048312;28;20076;-75
2022/11/15 08:50:28;;;;;;;14.65;9.52;;;;;;;10.73;84.48;100649.28;5048902;28;20464;-76
2022/11/15 08:52:53;;;;;;;10.38;8.23;;;;;;;10.76;84.04;100641.25;5032532;28;20182;-77
2022/11/15 08:55:19;;;;;;;10.18;8.75;;;;;;;10.76;83.89;100643.19;5032713;28;20081;-77
2022/11/15 08:57:45;;;;;;;13.68;8.15;;;;;;;10.77;83.86;100653.22;5039694;28;20037;-75
2022/11/15 09:00:12;;;;;;;10.40;8.27;;;;;;;10.74;83.66;100643.47;5028561;28;20037;-77
2022/11/15 09:02:38;;;;;;;11.52;8.10;;;;;;;10.76;83.73;100643.19;5035516;28;20029;-77
2022/11/15 09:05:05;;;;;;;9.82;7.75;;;;;;;10.82;83.43;100631.06;5035312;28;20061;-76
2022/11/15 09:07:31;;;;;;;9.40;6.88;;;;;;;10.84;83.15;100641.91;5033383;28;20645;-77
2022/11/15 09:09:59;;;;;;;13.45;7.20;;;;;;;10.87;82.94;100624.72;5041564;28;20112;-76
2022/11/15 09:12:25;;;;;;;12.65;7.10;;;;;;;10.89;82.69;100622.53;5049920;28;20028;-76
2022/11/15 09:14:50;;;;;;;8.30;6.07;;;;;;;10.93;82.15;100618.97;5051248;28;20029;-76
2022/11/15 09:17:16;;;;;;;9.05;5.78;;;;;;;10.97;81.74;100616.53;5050466;28;20152;-76
2022/11/15 09:19:44;;;;;;;8.45;5.88;;;;;;;11.04;81.58;100625.47;5050834;28;20028;-76
2022/11/15 09:22:09;;;;;;;6.30;5.28;;;;;;;11.05;80.76;100593.81;5047335;28;20036;-76
2022/11/15 09:24:35;;;;;;;7.20;5.15;;;;;;;11.10;81.42;100602.19;5048788;28;20040;-76
2022/11/15 09:27:00;;;;;;;8.70;5.00;;;;;;;11.14;80.24;100597.78;5048519;28;20484;-76
2022/11/15 09:29:26;;;;;;;5.88;4.10;;;;;;;11.16;79.49;100606.72;5049653;28;20033;-76
2022/11/15 09:31:52;;;;;;;6.35;4.40;;;;;;;11.18;79.64;100632.28;5049139;28;20044;-76
2022/11/15 09:34:17;;;;;;;9.30;4.57;;;;;;;11.18;79.24;100621.16;5049902;28;20013;-75
2022/11/15 09:36:42;;;;;;;5.55;3.90;;;;;;;11.18;78.21;100600.88;5047932;28;20099;-75
2022/11/15 09:39:08;;;;;;;7.72;4.05;;;;;;;11.15;78.58;100598.63;5044718;28;20052;-75
2022/11/15 09:41:52;;;;;;;4.32;3.08;;;;;;;11.14;77.80;100597.78;5042809;28;20519;-74
2022/11/15 09:44:38;;;;;;;7.80;3.47;;;;;;;11.13;78.06;100601.69;5046897;28;20120;-75
2022/11/15 09:47:24;;;;;;;3.45;3.15;;;;;;;11.18;78.06;100603.66;5049832;28;20025;-75
2022/11/15 09:49:57;;;;;;;6.15;3.00;;;;;;;11.25;77.05;100602.34;5049499;28;20095;-75
2022/11/15 09:52:23;;;;;;;8.45;2.83;;;;;;;11.37;75.47;100595.78;5050302;28;20047;-75
2022/11/15 09:54:51;;;;;;;4.47;2.90;;;;;;;11.46;75.60;100592.25;5043097;28;20029;-75
2022/11/15 09:57:39;;;;;;;6.28;2.60;;;;;;;11.59;76.05;100596.50;5049306;28;20057;-75
2022/11/15 10:00:16;;;;;;;4.75;2.00;;;;;;;11.69;72.81;100592.97;5047967;28;20056;-75
2022/11/15 10:03:04;;;;;;;3.42;1.85;;;;;;;11.79;73.44;100596.69;5028078;28;20108;-75
2022/11/15 10:05:39;;;;;;;3.95;2.22;;;;;;;11.86;70.95;100601.19;5036624;28;20047;-75
2022/11/15 10:08:17;;;;;;;4.28;2.35;;;;;;;11.92;70.03;100589.00;5048949;28;20025;-75
2022/11/15 10:10:46;;;;;;;3.58;1.90;;;;;;;12.03;70.34;100593.53;5044999;28;20021;-76
2022/11/15 10:13:33;;;;;;;5.38;2.00;;;;;;;12.10;70.93;100590.47;5042820;28;20033;-75
2022/11/15 10:16:17;;;;;;;3.78;1.80;;;;;;;12.15;70.96;100587.75;5047386;28;20391;-75
2022/11/15 10:19:09;;;;;;;4.10;1.80;;;;;;;12.13;70.43;100587.16;5048198;28;20033;-75
2022/11/15 10:21:58;;;;;;;3.75;1.73;;;;;;;12.14;70.97;100588.84;5049183;28;20031;-75
2022/11/15 10:24:29;;;;;;;5.03;1.73;;;;;;;12.09;68.23;100598.00;5049175;28;20037;-75
2022/11/15 10:26:56;;;;;;;3.92;1.73;;;;;;;12.03;68.13;100580.44;5048132;28;20082;-75
2022/11/15 10:29:25;;;;;;;4.40;1.60;;;;;;;11.97;68.28;100581.50;5038102;28;20366;-75
2022/11/15 10:31:50;;;;;;;6.70;1.52;;;;;;;11.92;67.16;100575.94;5028914;28;20115;-75
2022/11/15 10:34:19;;;;;;;2.63;1.50;;;;;;;11.91;66.90;100574.25;5035492;28;20149;-75
2022/11/15 10:36:56;;;;;;;3.80;1.40;;;;;;;11.94;67.47;100562.56;5045827;28;20068;-75
2022/11/15 10:39:21;;;;;;;4.90;1.30;;;;;;;11.96;66.79;100560.38;5032935;28;20416;-75
2022/11/15 10:41:47;;;;;;;4.97;1.38;;;;;;;11.98;66.36;100558.13;5035265;28;20026;-75
2022/11/15 10:44:26;;;;;;;6.88;1.42;;;;;;;12.00;65.93;100552.31;5052605;28;20025;-76
2022/11/15 10:46:54;;;;;;;2.95;1.30;;;;;;;12.04;65.24;100532.03;5053249;28;20032;-75
2022/11/15 10:49:25;;;;;;;4.72;1.33;;;;;;;12.09;65.61;100533.16;5053470;28;20036;-76
2022/11/15 10:51:53;;;;;;;6.20;1.55;;;;;;;12.17;65.69;100539.03;5051953;28;20079;-77
2022/11/15 10:54:30;;;;;;;4.13;1.25;;;;;;;12.26;65.69;100543.00;5052149;28;20036;-77
2022/11/15 10:57:04;;;;;;;3.72;1.25;;;;;;;12.32;64.23;100540.22;5052627;28;20151;-78
2022/11/15 10:59:35;;;;;;;5.93;1.50;;;;;;;12.38;64.14;100531.63;5048220;28;20500;-77
2022/11/15 11:02:00;;;;;;;3.20;1.60;;;;;;;12.46;64.08;100524.69;5037169;28;20117;-77
2022/11/15 11:04:26;;;;;;;5.00;1.42;;;;;;;12.48;64.40;100511.34;5034696;28;20486;-78
2022/11/15 11:07:01;;;;;;;4.00;1.48;;;;;;;12.58;65.43;100519.72;5053512;28;20028;-70
2022/11/15 11:09:42;;;;;;;4.80;1.40;;;;;;;12.65;64.75;100516.66;5040085;28;20065;-77
2022/11/15 11:12:11;;;;;;;6.32;1.70;;;;;;;12.69;63.55;100506.63;5048745;28;20112;-77
2022/11/15 11:14:38;;;;;;;6.63;1.70;;;;;;;12.72;63.77;100506.09;5057610;28;20020;-79
2022/11/15 11:17:36;;;;;;;5.25;1.40;;;;;;;12.72;64.70;100506.09;5056907;28;20064;-77
2022/11/15 11:20:38;;;;;;;6.32;1.70;;;;;;;12.66;65.50;100491.34;5065643;28;20072;-76
2022/11/15 11:23:36;;;;;;;5.03;1.42;;;;;;;12.66;65.13;100484.94;5066100;28;20089;-76
2022/11/15 11:26:23;;;;;;;7.35;1.67;;;;;;;12.61;64.79;100476.56;5065370;28;20033;-76
2022/11/15 11:29:20;;;;;;;4.30;1.42;;;;;;;12.58;64.72;100479.91;5057112;28;20114;-76
2022/11/15 11:32:07;;;;;;;5.20;1.50;;;;;;;12.55;64.34;100472.94;5056517;28;20040;-76
2022/11/15 11:34:43;;;;;;;6.85;1.63;;;;;;;12.51;64.29;100461.50;5041688;28;20385;-76
2022/11/15 11:37:31;;;;;;;3.92;1.40;;;;;;;12.55;65.07;100461.81;5044150;28;20096;-75
2022/11/15 11:40:05;;;;;;;5.00;1.80;;;;;;;12.57;63.89;100456.78;5054129;28;20040;-76
2022/11/15 11:42:41;;;;;;;7.85;1.58;;;;;;;12.58;62.85;100452.06;5036739;28;20472;-77